sensor_id;sensor_type;location;lat;lon;timestamp;P1;durP1;ratioP1;P2;durP2;ratioP2
52320;SDS011;38261;54.090;13.382;2023-04-07T00:01:24;5.87;;;2.57;;
52320;SDS011;38261;54.090;13.382;2023-04-07T00:02:46;8.70;;;2.80;;
52320;SDS011;38261;54.090;13.382;2023-04-07T00:04:09;10.23;;;2.93;;
52320;SDS011;38261;54.090;13.382;2023-04-07T00:05:31;6.57;;;2.73;;
52320;SDS011;38261;54.090;13.382;2023-04-07T00:06:53;5.80;;;2.40;;
52320;SDS011;38261;54.090;13.382;2023-04-07T00:08:16;8.40;;;2.30;;
52320;SDS011;38261;54.090;13.382;2023-04-07T00:09:38;7.50;;;3.10;;
52320;SDS011;38261;54.090;13.382;2023-04-07T00:11:00;7.80;;;2.50;;
52320;SDS011;38261;54.090;13.382;2023-04-07T00:12:22;5.23;;;2.37;;
52320;SDS011;38261;54.090;13.382;2023-04-07T00:13:44;7.83;;;2.63;;
52320;SDS011;38261;54.090;13.382;2023-04-07T00:15:06;5.10;;;2.33;;
52320;SDS011;38261;54.090;13.382;2023-04-07T00:16:29;5.23;;;2.17;;
52320;SDS011;38261;54.090;13.382;2023-04-07T00:17:51;9.30;;;2.40;;
52320;SDS011;38261;54.090;13.382;2023-04-07T00:19:13;10.47;;;2.63;;
52320;SDS011;38261;54.090;13.382;2023-04-07T00:20:35;3.60;;;2.17;;
52320;SDS011;38261;54.090;13.382;2023-04-07T00:21:57;4.33;;;2.70;;
52320;SDS011;38261;54.090;13.382;2023-04-07T00:23:20;4.20;;;2.30;;
52320;SDS011;38261;54.090;13.382;2023-04-07T00:24:42;3.73;;;2.47;;
52320;SDS011;38261;54.090;13.382;2023-04-07T00:26:04;6.20;;;2.70;;
52320;SDS011;38261;54.090;13.382;2023-04-07T00:27:26;7.07;;;2.27;;
52320;SDS011;38261;54.090;13.382;2023-04-07T00:28:48;8.00;;;2.83;;
52320;SDS011;38261;54.090;13.382;2023-04-07T00:30:10;3.77;;;2.17;;
52320;SDS011;38261;54.090;13.382;2023-04-07T00:31:33;2.70;;;2.17;;
52320;SDS011;38261;54.090;13.382;2023-04-07T00:32:55;4.57;;;2.60;;
52320;SDS011;38261;54.090;13.382;2023-04-07T00:34:17;8.47;;;2.77;;
52320;SDS011;38261;54.090;13.382;2023-04-07T00:35:39;7.83;;;2.53;;
52320;SDS011;38261;54.090;13.382;2023-04-07T00:37:01;3.73;;;2.50;;
52320;SDS011;38261;54.090;13.382;2023-04-07T00:38:24;5.47;;;2.77;;
52320;SDS011;38261;54.090;13.382;2023-04-07T00:39:46;8.30;;;2.40;;
52320;SDS011;38261;54.090;13.382;2023-04-07T00:41:08;7.70;;;2.97;;
52320;SDS011;38261;54.090;13.382;2023-04-07T00:42:31;3.00;;;2.47;;
52320;SDS011;38261;54.090;13.382;2023-04-07T00:43:55;3.47;;;2.37;;
52320;SDS011;38261;54.090;13.382;2023-04-07T00:45:17;2.37;;;2.17;;
52320;SDS011;38261;54.090;13.382;2023-04-07T00:46:39;5.87;;;2.70;;
52320;SDS011;38261;54.090;13.382;2023-04-07T00:48:03;6.13;;;2.63;;
52320;SDS011;38261;54.090;13.382;2023-04-07T00:49:26;4.73;;;2.83;;
52320;SDS011;38261;54.090;13.382;2023-04-07T00:50:52;3.40;;;2.30;;
52320;SDS011;38261;54.090;13.382;2023-04-07T00:52:14;9.30;;;3.10;;
52320;SDS011;38261;54.090;13.382;2023-04-07T00:53:37;7.53;;;2.80;;
52320;SDS011;38261;54.090;13.382;2023-04-07T00:54:59;10.17;;;2.80;;
52320;SDS011;38261;54.090;13.382;2023-04-07T00:56:21;6.73;;;2.57;;
52320;SDS011;38261;54.090;13.382;2023-04-07T00:57:43;7.60;;;2.77;;
52320;SDS011;38261;54.090;13.382;2023-04-07T00:59:07;5.50;;;3.10;;
52320;SDS011;38261;54.090;13.382;2023-04-07T01:00:29;7.00;;;2.60;;
52320;SDS011;38261;54.090;13.382;2023-04-07T01:02:04;4.90;;;2.60;;
52320;SDS011;38261;54.090;13.382;2023-04-07T01:03:32;11.90;;;3.07;;
52320;SDS011;38261;54.090;13.382;2023-04-07T01:06:29;3.63;;;2.27;;
52320;SDS011;38261;54.090;13.382;2023-04-07T01:08:11;4.77;;;2.87;;
52320;SDS011;38261;54.090;13.382;2023-04-07T01:09:49;11.83;;;3.20;;
52320;SDS011;38261;54.090;13.382;2023-04-07T01:12:54;3.10;;;2.30;;
52320;SDS011;38261;54.090;13.382;2023-04-07T01:14:23;3.53;;;2.37;;
52320;SDS011;38261;54.090;13.382;2023-04-07T01:15:49;3.60;;;2.30;;
52320;SDS011;38261;54.090;13.382;2023-04-07T01:17:17;5.30;;;2.40;;
52320;SDS011;38261;54.090;13.382;2023-04-07T01:18:41;3.53;;;2.37;;
52320;SDS011;38261;54.090;13.382;2023-04-07T01:20:10;6.00;;;2.70;;
52320;SDS011;38261;54.090;13.382;2023-04-07T01:21:36;2.83;;;1.97;;
52320;SDS011;38261;54.090;13.382;2023-04-07T01:23:03;4.80;;;2.63;;
52320;SDS011;38261;54.090;13.382;2023-04-07T01:30:38;6.80;;;3.30;;
52320;SDS011;38261;54.090;13.382;2023-04-07T01:32:05;5.80;;;1.90;;
52320;SDS011;38261;54.090;13.382;2023-04-07T01:33:30;5.63;;;2.27;;
52320;SDS011;38261;54.090;13.382;2023-04-07T01:34:56;4.63;;;2.10;;
52320;SDS011;38261;54.090;13.382;2023-04-07T01:36:20;8.70;;;2.10;;
52320;SDS011;38261;54.090;13.382;2023-04-07T01:37:43;2.80;;;2.23;;
52320;SDS011;38261;54.090;13.382;2023-04-07T01:39:09;4.93;;;2.07;;
52320;SDS011;38261;54.090;13.382;2023-04-07T01:40:33;2.70;;;1.90;;
52320;SDS011;38261;54.090;13.382;2023-04-07T01:41:56;4.90;;;2.20;;
52320;SDS011;38261;54.090;13.382;2023-04-07T01:43:20;3.60;;;2.17;;
52320;SDS011;38261;54.090;13.382;2023-04-07T01:44:42;3.33;;;1.70;;
52320;SDS011;38261;54.090;13.382;2023-04-07T01:46:06;3.07;;;2.07;;
52320;SDS011;38261;54.090;13.382;2023-04-07T01:47:28;6.20;;;2.10;;
52320;SDS011;38261;54.090;13.382;2023-04-07T01:48:51;3.47;;;1.73;;
52320;SDS011;38261;54.090;13.382;2023-04-07T01:50:14;7.03;;;1.97;;
52320;SDS011;38261;54.090;13.382;2023-04-07T01:51:37;3.47;;;2.20;;
52320;SDS011;38261;54.090;13.382;2023-04-07T01:53:00;2.27;;;1.30;;
52320;SDS011;38261;54.090;13.382;2023-04-07T01:54:25;4.40;;;1.67;;
52320;SDS011;38261;54.090;13.382;2023-04-07T01:55:48;3.77;;;1.77;;
52320;SDS011;38261;54.090;13.382;2023-04-07T01:57:10;3.60;;;1.83;;
52320;SDS011;38261;54.090;13.382;2023-04-07T01:58:32;2.93;;;1.70;;
52320;SDS011;38261;54.090;13.382;2023-04-07T01:59:54;6.33;;;1.97;;
52320;SDS011;38261;54.090;13.382;2023-04-07T02:01:16;2.57;;;1.77;;
52320;SDS011;38261;54.090;13.382;2023-04-07T02:02:40;2.60;;;1.93;;
52320;SDS011;38261;54.090;13.382;2023-04-07T02:04:15;8.70;;;1.73;;
52320;SDS011;38261;54.090;13.382;2023-04-07T02:05:42;5.77;;;1.57;;
52320;SDS011;38261;54.090;13.382;2023-04-07T02:07:07;6.43;;;1.43;;
52320;SDS011;38261;54.090;13.382;2023-04-07T02:08:35;3.33;;;1.50;;
52320;SDS011;38261;54.090;13.382;2023-04-07T02:10:02;1.87;;;1.43;;
52320;SDS011;38261;54.090;13.382;2023-04-07T02:11:28;3.20;;;1.40;;
52320;SDS011;38261;54.090;13.382;2023-04-07T02:12:53;3.10;;;1.60;;
52320;SDS011;38261;54.090;13.382;2023-04-07T02:14:17;1.93;;;1.47;;
52320;SDS011;38261;54.090;13.382;2023-04-07T02:15:41;2.17;;;1.40;;
52320;SDS011;38261;54.090;13.382;2023-04-07T02:17:06;1.97;;;1.60;;
52320;SDS011;38261;54.090;13.382;2023-04-07T02:18:29;2.40;;;1.67;;
52320;SDS011;38261;54.090;13.382;2023-04-07T02:19:52;5.90;;;1.47;;
52320;SDS011;38261;54.090;13.382;2023-04-07T02:21:17;1.47;;;1.37;;
52320;SDS011;38261;54.090;13.382;2023-04-07T02:22:39;8.37;;;1.97;;
52320;SDS011;38261;54.090;13.382;2023-04-07T02:24:06;4.70;;;1.80;;
52320;SDS011;38261;54.090;13.382;2023-04-07T02:25:29;3.27;;;1.77;;
52320;SDS011;38261;54.090;13.382;2023-04-07T02:26:52;3.50;;;1.43;;
52320;SDS011;38261;54.090;13.382;2023-04-07T02:28:14;4.10;;;1.60;;
52320;SDS011;38261;54.090;13.382;2023-04-07T02:29:37;3.73;;;1.57;;
52320;SDS011;38261;54.090;13.382;2023-04-07T02:30:59;10.73;;;1.87;;
52320;SDS011;38261;54.090;13.382;2023-04-07T02:32:21;4.70;;;1.90;;
52320;SDS011;38261;54.090;13.382;2023-04-07T02:33:43;1.70;;;1.60;;
52320;SDS011;38261;54.090;13.382;2023-04-07T02:35:06;7.33;;;1.80;;
52320;SDS011;38261;54.090;13.382;2023-04-07T02:36:28;3.43;;;1.30;;
52320;SDS011;38261;54.090;13.382;2023-04-07T02:37:51;2.90;;;1.43;;
52320;SDS011;38261;54.090;13.382;2023-04-07T02:39:14;2.00;;;1.53;;
52320;SDS011;38261;54.090;13.382;2023-04-07T02:40:36;3.00;;;1.57;;
52320;SDS011;38261;54.090;13.382;2023-04-07T02:41:58;4.27;;;1.70;;
52320;SDS011;38261;54.090;13.382;2023-04-07T02:43:20;2.87;;;1.63;;
52320;SDS011;38261;54.090;13.382;2023-04-07T02:44:44;2.63;;;2.00;;
52320;SDS011;38261;54.090;13.382;2023-04-07T02:46:06;10.47;;;2.57;;
52320;SDS011;38261;54.090;13.382;2023-04-07T02:47:28;3.27;;;2.10;;
52320;SDS011;38261;54.090;13.382;2023-04-07T02:48:50;1.73;;;1.60;;
52320;SDS011;38261;54.090;13.382;2023-04-07T02:50:12;2.10;;;1.50;;
52320;SDS011;38261;54.090;13.382;2023-04-07T02:51:34;2.53;;;1.53;;
52320;SDS011;38261;54.090;13.382;2023-04-07T02:52:56;3.23;;;1.40;;
52320;SDS011;38261;54.090;13.382;2023-04-07T02:54:19;3.40;;;1.70;;
52320;SDS011;38261;54.090;13.382;2023-04-07T02:55:41;4.23;;;2.27;;
52320;SDS011;38261;54.090;13.382;2023-04-07T02:57:03;3.43;;;1.80;;
52320;SDS011;38261;54.090;13.382;2023-04-07T02:58:25;2.70;;;1.70;;
52320;SDS011;38261;54.090;13.382;2023-04-07T02:59:47;3.23;;;1.87;;
52320;SDS011;38261;54.090;13.382;2023-04-07T03:01:09;4.67;;;1.90;;
52320;SDS011;38261;54.090;13.382;2023-04-07T03:02:31;3.03;;;1.90;;
52320;SDS011;38261;54.090;13.382;2023-04-07T03:03:54;5.53;;;1.70;;
52320;SDS011;38261;54.090;13.382;2023-04-07T03:05:17;1.67;;;1.57;;
52320;SDS011;38261;54.090;13.382;2023-04-07T03:06:39;2.73;;;2.07;;
52320;SDS011;38261;54.090;13.382;2023-04-07T03:08:01;6.83;;;1.90;;
52320;SDS011;38261;54.090;13.382;2023-04-07T03:09:23;1.73;;;1.63;;
52320;SDS011;38261;54.090;13.382;2023-04-07T03:10:45;10.13;;;1.90;;
52320;SDS011;38261;54.090;13.382;2023-04-07T03:12:08;2.43;;;1.60;;
52320;SDS011;38261;54.090;13.382;2023-04-07T03:13:30;1.50;;;1.40;;
52320;SDS011;38261;54.090;13.382;2023-04-07T03:14:52;3.03;;;1.67;;
52320;SDS011;38261;54.090;13.382;2023-04-07T03:16:14;2.53;;;2.33;;
52320;SDS011;38261;54.090;13.382;2023-04-07T03:17:36;3.00;;;1.80;;
52320;SDS011;38261;54.090;13.382;2023-04-07T03:18:59;4.00;;;1.80;;
52320;SDS011;38261;54.090;13.382;2023-04-07T03:20:21;4.07;;;2.03;;
52320;SDS011;38261;54.090;13.382;2023-04-07T03:21:43;3.47;;;1.90;;
52320;SDS011;38261;54.090;13.382;2023-04-07T03:23:05;4.20;;;1.90;;
52320;SDS011;38261;54.090;13.382;2023-04-07T03:24:27;4.40;;;2.10;;
52320;SDS011;38261;54.090;13.382;2023-04-07T03:25:50;2.37;;;2.17;;
52320;SDS011;38261;54.090;13.382;2023-04-07T03:27:12;2.43;;;1.57;;
52320;SDS011;38261;54.090;13.382;2023-04-07T03:28:34;2.20;;;1.57;;
52320;SDS011;38261;54.090;13.382;2023-04-07T03:29:56;2.13;;;1.77;;
52320;SDS011;38261;54.090;13.382;2023-04-07T03:31:18;5.23;;;1.90;;
52320;SDS011;38261;54.090;13.382;2023-04-07T03:32:40;3.13;;;1.47;;
52320;SDS011;38261;54.090;13.382;2023-04-07T03:34:03;3.93;;;1.77;;
52320;SDS011;38261;54.090;13.382;2023-04-07T03:35:25;3.87;;;1.90;;
52320;SDS011;38261;54.090;13.382;2023-04-07T03:36:47;3.70;;;1.90;;
52320;SDS011;38261;54.090;13.382;2023-04-07T03:38:09;5.20;;;2.10;;
52320;SDS011;38261;54.090;13.382;2023-04-07T03:39:32;3.37;;;1.77;;
52320;SDS011;38261;54.090;13.382;2023-04-07T03:40:57;2.60;;;1.87;;
52320;SDS011;38261;54.090;13.382;2023-04-07T03:42:19;3.10;;;2.00;;
52320;SDS011;38261;54.090;13.382;2023-04-07T03:43:41;2.53;;;1.80;;
52320;SDS011;38261;54.090;13.382;2023-04-07T03:45:03;4.20;;;1.97;;
52320;SDS011;38261;54.090;13.382;2023-04-07T03:46:26;3.93;;;1.90;;
52320;SDS011;38261;54.090;13.382;2023-04-07T03:47:48;5.60;;;1.97;;
52320;SDS011;38261;54.090;13.382;2023-04-07T03:49:10;3.67;;;2.00;;
52320;SDS011;38261;54.090;13.382;2023-04-07T03:50:32;2.40;;;2.13;;
52320;SDS011;38261;54.090;13.382;2023-04-07T03:51:55;3.07;;;1.80;;
52320;SDS011;38261;54.090;13.382;2023-04-07T03:53:17;2.83;;;1.90;;
52320;SDS011;38261;54.090;13.382;2023-04-07T03:54:39;3.97;;;2.00;;
52320;SDS011;38261;54.090;13.382;2023-04-07T03:56:02;2.83;;;2.10;;
52320;SDS011;38261;54.090;13.382;2023-04-07T03:57:24;5.80;;;1.70;;
52320;SDS011;38261;54.090;13.382;2023-04-07T03:58:46;1.90;;;1.60;;
52320;SDS011;38261;54.090;13.382;2023-04-07T04:00:09;2.30;;;1.70;;
52320;SDS011;38261;54.090;13.382;2023-04-07T04:01:33;2.37;;;1.97;;
52320;SDS011;38261;54.090;13.382;2023-04-07T04:02:55;1.70;;;1.60;;
52320;SDS011;38261;54.090;13.382;2023-04-07T04:04:17;2.60;;;1.93;;
52320;SDS011;38261;54.090;13.382;2023-04-07T04:05:39;3.63;;;2.27;;
52320;SDS011;38261;54.090;13.382;2023-04-07T04:07:02;3.13;;;1.80;;
52320;SDS011;38261;54.090;13.382;2023-04-07T04:08:24;4.83;;;2.27;;
52320;SDS011;38261;54.090;13.382;2023-04-07T04:09:47;3.10;;;1.70;;
52320;SDS011;38261;54.090;13.382;2023-04-07T04:11:09;2.03;;;1.60;;
52320;SDS011;38261;54.090;13.382;2023-04-07T04:12:31;8.10;;;2.07;;
52320;SDS011;38261;54.090;13.382;2023-04-07T04:13:54;4.63;;;1.93;;
52320;SDS011;38261;54.090;13.382;2023-04-07T04:15:16;2.97;;;1.97;;
52320;SDS011;38261;54.090;13.382;2023-04-07T04:16:38;2.30;;;2.10;;
52320;SDS011;38261;54.090;13.382;2023-04-07T04:18:00;3.13;;;2.30;;
52320;SDS011;38261;54.090;13.382;2023-04-07T04:19:23;2.97;;;1.93;;
52320;SDS011;38261;54.090;13.382;2023-04-07T04:20:45;2.00;;;1.60;;
52320;SDS011;38261;54.090;13.382;2023-04-07T04:22:08;3.47;;;2.30;;
52320;SDS011;38261;54.090;13.382;2023-04-07T04:23:30;4.97;;;2.60;;
52320;SDS011;38261;54.090;13.382;2023-04-07T04:24:52;4.50;;;1.97;;
52320;SDS011;38261;54.090;13.382;2023-04-07T04:26:14;4.70;;;1.80;;
52320;SDS011;38261;54.090;13.382;2023-04-07T04:27:36;3.63;;;2.43;;
52320;SDS011;38261;54.090;13.382;2023-04-07T04:28:58;3.73;;;1.93;;
52320;SDS011;38261;54.090;13.382;2023-04-07T04:30:21;2.90;;;2.33;;
52320;SDS011;38261;54.090;13.382;2023-04-07T04:31:43;3.33;;;2.13;;
52320;SDS011;38261;54.090;13.382;2023-04-07T04:33:05;3.57;;;2.20;;
52320;SDS011;38261;54.090;13.382;2023-04-07T04:34:27;2.80;;;1.87;;
52320;SDS011;38261;54.090;13.382;2023-04-07T04:35:49;3.27;;;2.30;;
52320;SDS011;38261;54.090;13.382;2023-04-07T04:37:11;5.20;;;2.57;;
52320;SDS011;38261;54.090;13.382;2023-04-07T04:38:33;4.90;;;2.00;;
52320;SDS011;38261;54.090;13.382;2023-04-07T04:39:56;5.20;;;2.50;;
52320;SDS011;38261;54.090;13.382;2023-04-07T04:41:18;2.33;;;2.13;;
52320;SDS011;38261;54.090;13.382;2023-04-07T04:42:40;3.80;;;2.10;;
52320;SDS011;38261;54.090;13.382;2023-04-07T04:44:02;5.30;;;2.50;;
52320;SDS011;38261;54.090;13.382;2023-04-07T04:45:24;4.37;;;3.13;;
52320;SDS011;38261;54.090;13.382;2023-04-07T04:46:47;3.30;;;2.20;;
52320;SDS011;38261;54.090;13.382;2023-04-07T04:48:09;3.50;;;2.43;;
52320;SDS011;38261;54.090;13.382;2023-04-07T04:49:31;5.60;;;1.97;;
52320;SDS011;38261;54.090;13.382;2023-04-07T04:50:53;8.97;;;2.03;;
52320;SDS011;38261;54.090;13.382;2023-04-07T04:52:16;4.27;;;1.90;;
52320;SDS011;38261;54.090;13.382;2023-04-07T04:53:38;5.97;;;2.40;;
52320;SDS011;38261;54.090;13.382;2023-04-07T04:55:00;2.57;;;1.77;;
52320;SDS011;38261;54.090;13.382;2023-04-07T04:56:22;2.47;;;2.27;;
52320;SDS011;38261;54.090;13.382;2023-04-07T04:57:44;2.90;;;2.57;;
52320;SDS011;38261;54.090;13.382;2023-04-07T04:59:06;3.77;;;2.17;;
52320;SDS011;38261;54.090;13.382;2023-04-07T05:00:28;4.77;;;1.90;;
52320;SDS011;38261;54.090;13.382;2023-04-07T05:01:51;2.40;;;1.80;;
52320;SDS011;38261;54.090;13.382;2023-04-07T05:03:13;6.97;;;1.80;;
52320;SDS011;38261;54.090;13.382;2023-04-07T05:04:35;1.90;;;1.67;;
52320;SDS011;38261;54.090;13.382;2023-04-07T05:05:58;3.90;;;1.57;;
52320;SDS011;38261;54.090;13.382;2023-04-07T05:07:20;2.23;;;1.70;;
52320;SDS011;38261;54.090;13.382;2023-04-07T05:08:42;2.73;;;1.90;;
52320;SDS011;38261;54.090;13.382;2023-04-07T05:10:05;2.07;;;1.80;;
52320;SDS011;38261;54.090;13.382;2023-04-07T05:11:28;2.57;;;1.90;;
52320;SDS011;38261;54.090;13.382;2023-04-07T05:12:50;4.43;;;1.80;;
52320;SDS011;38261;54.090;13.382;2023-04-07T05:14:12;1.43;;;1.33;;
52320;SDS011;38261;54.090;13.382;2023-04-07T05:15:34;2.57;;;1.60;;
52320;SDS011;38261;54.090;13.382;2023-04-07T05:16:57;4.87;;;2.23;;
52320;SDS011;38261;54.090;13.382;2023-04-07T05:18:20;2.07;;;1.87;;
52320;SDS011;38261;54.090;13.382;2023-04-07T05:19:42;2.77;;;1.80;;
52320;SDS011;38261;54.090;13.382;2023-04-07T05:21:04;2.03;;;1.83;;
52320;SDS011;38261;54.090;13.382;2023-04-07T05:22:26;2.20;;;2.00;;
52320;SDS011;38261;54.090;13.382;2023-04-07T05:23:48;3.30;;;1.97;;
52320;SDS011;38261;54.090;13.382;2023-04-07T05:25:11;3.80;;;2.17;;
52320;SDS011;38261;54.090;13.382;2023-04-07T05:26:33;11.53;;;2.47;;
52320;SDS011;38261;54.090;13.382;2023-04-07T05:27:57;4.23;;;2.23;;
52320;SDS011;38261;54.090;13.382;2023-04-07T05:29:20;2.17;;;1.97;;
52320;SDS011;38261;54.090;13.382;2023-04-07T05:30:42;3.93;;;1.97;;
52320;SDS011;38261;54.090;13.382;2023-04-07T05:32:04;4.23;;;2.00;;
52320;SDS011;38261;54.090;13.382;2023-04-07T05:33:26;3.30;;;2.07;;
52320;SDS011;38261;54.090;13.382;2023-04-07T05:34:49;4.30;;;2.10;;
52320;SDS011;38261;54.090;13.382;2023-04-07T05:36:11;2.83;;;2.10;;
52320;SDS011;38261;54.090;13.382;2023-04-07T05:37:33;6.50;;;2.20;;
52320;SDS011;38261;54.090;13.382;2023-04-07T05:38:55;3.93;;;2.70;;
52320;SDS011;38261;54.090;13.382;2023-04-07T05:40:17;6.50;;;2.40;;
52320;SDS011;38261;54.090;13.382;2023-04-07T05:41:39;2.23;;;1.90;;
52320;SDS011;38261;54.090;13.382;2023-04-07T05:43:01;2.80;;;2.33;;
52320;SDS011;38261;54.090;13.382;2023-04-07T05:44:24;2.00;;;1.80;;
52320;SDS011;38261;54.090;13.382;2023-04-07T05:45:46;2.37;;;2.17;;
52320;SDS011;38261;54.090;13.382;2023-04-07T05:47:08;4.17;;;2.33;;
52320;SDS011;38261;54.090;13.382;2023-04-07T05:48:31;2.43;;;2.00;;
52320;SDS011;38261;54.090;13.382;2023-04-07T05:49:53;3.20;;;1.90;;
52320;SDS011;38261;54.090;13.382;2023-04-07T05:51:16;4.67;;;2.07;;
52320;SDS011;38261;54.090;13.382;2023-04-07T05:52:38;3.07;;;2.10;;
52320;SDS011;38261;54.090;13.382;2023-04-07T05:54:00;3.47;;;2.27;;
52320;SDS011;38261;54.090;13.382;2023-04-07T05:55:25;3.70;;;2.17;;
52320;SDS011;38261;54.090;13.382;2023-04-07T05:56:48;2.80;;;1.87;;
52320;SDS011;38261;54.090;13.382;2023-04-07T05:58:10;3.10;;;2.00;;
52320;SDS011;38261;54.090;13.382;2023-04-07T05:59:32;4.67;;;2.07;;
52320;SDS011;38261;54.090;13.382;2023-04-07T06:00:55;2.60;;;2.37;;
52320;SDS011;38261;54.090;13.382;2023-04-07T06:02:17;4.70;;;2.30;;
52320;SDS011;38261;54.090;13.382;2023-04-07T06:03:39;2.30;;;1.90;;
52320;SDS011;38261;54.090;13.382;2023-04-07T06:05:02;2.27;;;2.10;;
52320;SDS011;38261;54.090;13.382;2023-04-07T06:06:24;2.80;;;2.33;;
52320;SDS011;38261;54.090;13.382;2023-04-07T06:07:47;3.73;;;2.40;;
52320;SDS011;38261;54.090;13.382;2023-04-07T06:09:09;1.90;;;1.70;;
52320;SDS011;38261;54.090;13.382;2023-04-07T06:10:31;5.03;;;2.23;;
52320;SDS011;38261;54.090;13.382;2023-04-07T06:11:53;2.13;;;1.90;;
52320;SDS011;38261;54.090;13.382;2023-04-07T06:13:17;3.30;;;2.53;;
52320;SDS011;38261;54.090;13.382;2023-04-07T06:14:39;4.03;;;2.00;;
52320;SDS011;38261;54.090;13.382;2023-04-07T06:16:01;2.30;;;2.10;;
52320;SDS011;38261;54.090;13.382;2023-04-07T06:17:23;3.47;;;2.27;;
52320;SDS011;38261;54.090;13.382;2023-04-07T06:18:45;4.30;;;2.30;;
52320;SDS011;38261;54.090;13.382;2023-04-07T06:20:08;2.87;;;2.50;;
52320;SDS011;38261;54.090;13.382;2023-04-07T06:21:30;2.90;;;2.33;;
52320;SDS011;38261;54.090;13.382;2023-04-07T06:22:52;3.50;;;2.60;;
52320;SDS011;38261;54.090;13.382;2023-04-07T06:24:15;3.90;;;2.57;;
52320;SDS011;38261;54.090;13.382;2023-04-07T06:25:37;4.47;;;2.90;;
52320;SDS011;38261;54.090;13.382;2023-04-07T06:26:59;3.40;;;2.70;;
52320;SDS011;38261;54.090;13.382;2023-04-07T06:28:22;3.20;;;2.67;;
52320;SDS011;38261;54.090;13.382;2023-04-07T06:29:44;4.87;;;3.17;;
52320;SDS011;38261;54.090;13.382;2023-04-07T06:31:07;7.23;;;4.03;;
52320;SDS011;38261;54.090;13.382;2023-04-07T06:32:29;3.33;;;2.83;;
52320;SDS011;38261;54.090;13.382;2023-04-07T06:33:52;5.13;;;2.83;;
52320;SDS011;38261;54.090;13.382;2023-04-07T06:35:14;7.30;;;3.17;;
52320;SDS011;38261;54.090;13.382;2023-04-07T06:36:36;5.57;;;3.00;;
52320;SDS011;38261;54.090;13.382;2023-04-07T06:37:58;4.00;;;3.17;;
52320;SDS011;38261;54.090;13.382;2023-04-07T06:39:21;5.17;;;3.83;;
52320;SDS011;38261;54.090;13.382;2023-04-07T06:40:43;3.80;;;2.90;;
52320;SDS011;38261;54.090;13.382;2023-04-07T06:42:05;3.90;;;3.57;;
52320;SDS011;38261;54.090;13.382;2023-04-07T06:43:28;3.13;;;2.83;;
52320;SDS011;38261;54.090;13.382;2023-04-07T06:44:51;3.60;;;3.10;;
52320;SDS011;38261;54.090;13.382;2023-04-07T06:46:13;3.00;;;2.13;;
52320;SDS011;38261;54.090;13.382;2023-04-07T06:47:35;5.10;;;2.63;;
52320;SDS011;38261;54.090;13.382;2023-04-07T06:48:58;3.90;;;2.40;;
52320;SDS011;38261;54.090;13.382;2023-04-07T06:50:21;2.93;;;2.30;;
52320;SDS011;38261;54.090;13.382;2023-04-07T06:51:43;3.20;;;2.83;;
52320;SDS011;38261;54.090;13.382;2023-04-07T06:53:05;7.03;;;2.40;;
52320;SDS011;38261;54.090;13.382;2023-04-07T06:54:27;3.60;;;2.60;;
52320;SDS011;38261;54.090;13.382;2023-04-07T06:55:49;7.47;;;2.67;;
52320;SDS011;38261;54.090;13.382;2023-04-07T06:57:11;4.17;;;3.27;;
52320;SDS011;38261;54.090;13.382;2023-04-07T06:58:33;6.37;;;3.40;;
52320;SDS011;38261;54.090;13.382;2023-04-07T06:59:56;7.13;;;3.90;;
52320;SDS011;38261;54.090;13.382;2023-04-07T07:01:18;4.33;;;3.80;;
52320;SDS011;38261;54.090;13.382;2023-04-07T07:02:40;4.77;;;3.80;;
52320;SDS011;38261;54.090;13.382;2023-04-07T07:04:03;5.63;;;3.40;;
52320;SDS011;38261;54.090;13.382;2023-04-07T07:05:27;3.40;;;3.10;;
52320;SDS011;38261;54.090;13.382;2023-04-07T07:06:49;4.70;;;3.50;;
52320;SDS011;38261;54.090;13.382;2023-04-07T07:08:11;3.43;;;3.13;;
52320;SDS011;38261;54.090;13.382;2023-04-07T07:09:33;5.30;;;3.50;;
52320;SDS011;38261;54.090;13.382;2023-04-07T07:10:55;7.20;;;3.83;;
52320;SDS011;38261;54.090;13.382;2023-04-07T07:12:17;3.33;;;3.03;;
52320;SDS011;38261;54.090;13.382;2023-04-07T07:13:39;6.33;;;3.80;;
52320;SDS011;38261;54.090;13.382;2023-04-07T07:15:01;6.13;;;3.53;;
52320;SDS011;38261;54.090;13.382;2023-04-07T07:16:24;6.03;;;4.10;;
52320;SDS011;38261;54.090;13.382;2023-04-07T07:17:46;4.10;;;3.70;;
52320;SDS011;38261;54.090;13.382;2023-04-07T07:19:08;4.50;;;3.73;;
52320;SDS011;38261;54.090;13.382;2023-04-07T07:20:30;5.03;;;4.30;;
52320;SDS011;38261;54.090;13.382;2023-04-07T07:21:52;7.83;;;4.03;;
52320;SDS011;38261;54.090;13.382;2023-04-07T07:23:15;4.20;;;3.80;;
52320;SDS011;38261;54.090;13.382;2023-04-07T07:24:38;6.43;;;3.70;;
52320;SDS011;38261;54.090;13.382;2023-04-07T07:26:00;4.10;;;3.60;;
52320;SDS011;38261;54.090;13.382;2023-04-07T07:27:22;5.30;;;3.87;;
52320;SDS011;38261;54.090;13.382;2023-04-07T07:28:44;4.53;;;3.60;;
52320;SDS011;38261;54.090;13.382;2023-04-07T07:30:07;6.67;;;3.40;;
52320;SDS011;38261;54.090;13.382;2023-04-07T07:31:30;4.93;;;3.67;;
52320;SDS011;38261;54.090;13.382;2023-04-07T07:32:52;10.03;;;3.93;;
52320;SDS011;38261;54.090;13.382;2023-04-07T07:34:15;5.07;;;3.20;;
52320;SDS011;38261;54.090;13.382;2023-04-07T07:35:37;4.63;;;2.90;;
52320;SDS011;38261;54.090;13.382;2023-04-07T07:37:01;3.83;;;3.50;;
52320;SDS011;38261;54.090;13.382;2023-04-07T07:38:23;11.90;;;3.53;;
52320;SDS011;38261;54.090;13.382;2023-04-07T07:39:45;4.67;;;3.40;;
52320;SDS011;38261;54.090;13.382;2023-04-07T07:41:07;6.70;;;4.20;;
52320;SDS011;38261;54.090;13.382;2023-04-07T07:42:30;5.20;;;4.03;;
52320;SDS011;38261;54.090;13.382;2023-04-07T07:43:52;5.50;;;4.07;;
52320;SDS011;38261;54.090;13.382;2023-04-07T07:45:14;7.80;;;4.60;;
52320;SDS011;38261;54.090;13.382;2023-04-07T07:46:38;4.37;;;3.97;;
52320;SDS011;38261;54.090;13.382;2023-04-07T07:48:00;8.63;;;4.70;;
52320;SDS011;38261;54.090;13.382;2023-04-07T07:49:22;8.10;;;3.83;;
52320;SDS011;38261;54.090;13.382;2023-04-07T07:50:44;4.73;;;3.87;;
52320;SDS011;38261;54.090;13.382;2023-04-07T07:52:07;8.17;;;4.70;;
52320;SDS011;38261;54.090;13.382;2023-04-07T07:53:30;9.47;;;4.63;;
52320;SDS011;38261;54.090;13.382;2023-04-07T07:54:52;10.20;;;5.97;;
52320;SDS011;38261;54.090;13.382;2023-04-07T07:56:15;8.17;;;4.50;;
52320;SDS011;38261;54.090;13.382;2023-04-07T07:57:37;5.00;;;4.50;;
52320;SDS011;38261;54.090;13.382;2023-04-07T07:58:59;8.80;;;5.80;;
52320;SDS011;38261;54.090;13.382;2023-04-07T08:00:21;8.13;;;4.83;;
52320;SDS011;38261;54.090;13.382;2023-04-07T08:01:44;5.87;;;4.60;;
52320;SDS011;38261;54.090;13.382;2023-04-07T08:03:06;6.50;;;2.83;;
52320;SDS011;38261;54.090;13.382;2023-04-07T08:04:28;4.13;;;3.23;;
52320;SDS011;38261;54.090;13.382;2023-04-07T08:05:51;6.47;;;3.30;;
52320;SDS011;38261;54.090;13.382;2023-04-07T08:07:13;6.60;;;3.93;;
52320;SDS011;38261;54.090;13.382;2023-04-07T08:08:35;4.40;;;3.13;;
52320;SDS011;38261;54.090;13.382;2023-04-07T08:09:57;3.77;;;2.93;;
52320;SDS011;38261;54.090;13.382;2023-04-07T08:11:19;6.70;;;2.90;;
52320;SDS011;38261;54.090;13.382;2023-04-07T08:12:41;4.27;;;3.27;;
52320;SDS011;38261;54.090;13.382;2023-04-07T08:14:04;6.70;;;3.03;;
52320;SDS011;38261;54.090;13.382;2023-04-07T08:15:29;2.60;;;2.27;;
52320;SDS011;38261;54.090;13.382;2023-04-07T08:16:51;5.03;;;2.80;;
52320;SDS011;38261;54.090;13.382;2023-04-07T08:18:13;6.60;;;2.30;;
52320;SDS011;38261;54.090;13.382;2023-04-07T08:19:35;5.00;;;2.60;;
52320;SDS011;38261;54.090;13.382;2023-04-07T08:20:57;5.80;;;2.90;;